Time;durP1;ratioP1;P1;durP2;ratioP2;P2;SDS_P1;SDS_P2;PMS_P1;PMS_P2;Temp;Humidity;BMP_temperature;BMP_pressure;BME280_temperature;BME280_humidity;BME280_pressure;Samples;Min_cycle;Max_cycle;Signal;HPM_P1;HPM_P2
2023/04/15 00:01:26;;;;;;;5.80;3.20;;;;;;;8.54;78.88;97226.27;104883;1260;108715;-70
2023/04/15 00:03:54;;;;;;;4.40;2.10;;;;;;;8.51;79.05;97233.00;105035;1258;97806;-67
2023/04/15 00:06:21;;;;;;;6.60;2.70;;;;;;;8.48;79.03;97236.30;105010;1261;97832;-66
2023/04/15 00:08:49;;;;;;;5.00;2.20;;;;;;;8.45;78.85;97239.31;105066;1260;96538;-67
2023/04/15 00:11:17;;;;;;;3.30;1.70;;;;;;;8.41;78.59;97238.73;104831;1263;98962;-68
2023/04/15 00:13:44;;;;;;;4.40;2.80;;;;;;;8.38;78.61;97239.16;104843;1265;108450;-67
2023/04/15 00:16:11;;;;;;;7.90;4.40;;;;;;;8.33;78.53;97236.10;104887;1260;96570;-67
2023/04/15 00:18:38;;;;;;;2.80;1.70;;;;;;;8.27;78.83;97242.05;104947;1263;97032;-67
2023/04/15 00:21:05;;;;;;;7.10;4.20;;;;;;;8.22;78.59;97249.58;104905;1260;97869;-67
2023/04/15 00:23:33;;;;;;;4.80;2.20;;;;;;;8.19;78.66;97251.96;104921;1260;96635;-67
2023/04/15 00:26:00;;;;;;;5.60;2.70;;;;;;;8.19;78.37;97261.23;104872;1273;96586;-67
2023/04/15 00:28:27;;;;;;;7.30;3.10;;;;;;;8.19;78.19;97263.66;104800;1260;97550;-68
2023/04/15 00:30:54;;;;;;;3.80;2.00;;;;;;;8.21;78.18;97266.54;104947;1260;97900;-66
2023/04/15 00:33:21;;;;;;;2.20;1.20;;;;;;;8.23;78.01;97266.67;104879;1260;96569;-66
2023/04/15 00:35:48;;;;;;;1.50;1.20;;;;;;;8.25;77.89;97269.11;104960;1260;96493;-67
2023/04/15 00:38:15;;;;;;;2.70;1.90;;;;;;;8.26;78.12;97268.52;105003;1257;97307;-67
2023/04/15 00:40:42;;;;;;;2.90;1.10;;;;;;;8.22;77.89;97266.41;104584;1258;98108;-67
2023/04/15 00:43:09;;;;;;;1.20;1.00;;;;;;;8.17;77.99;97269.52;104950;1260;97692;-67
2023/04/15 00:45:37;;;;;;;1.90;0.90;;;;;;;8.14;78.15;97273.55;104773;1261;97186;-67
2023/04/15 00:48:04;;;;;;;1.70;1.50;;;;;;;8.12;78.11;97271.34;104850;1270;97606;-67
2023/04/15 00:50:32;;;;;;;2.00;1.20;;;;;;;8.08;78.01;97271.27;105006;1260;96612;-67
2023/04/15 00:53:00;;;;;;;1.90;1.30;;;;;;;8.04;77.83;97274.02;105075;1258;96555;-67
2023/04/15 00:55:27;;;;;;;4.90;2.40;;;;;;;8.02;77.71;97278.54;104893;1258;109454;-67
2023/04/15 00:57:56;;;;;;;6.90;4.70;;;;;;;7.99;77.49;97281.54;104888;1258;96562;-67
2023/04/15 01:00:23;;;;;;;6.40;3.10;;;;;;;7.98;77.61;97285.09;104761;1263;107667;-67
2023/04/15 01:02:51;;;;;;;21.90;10.70;;;;;;;7.95;77.24;97289.65;104626;1266;96721;-66
2023/04/15 01:05:18;;;;;;;5.10;2.20;;;;;;;7.90;77.42;97296.20;104979;1260;97331;-67
2023/04/15 01:07:47;;;;;;;5.60;2.60;;;;;;;7.88;77.71;97299.12;104963;1271;96535;-67
2023/04/15 01:10:14;;;;;;;8.70;3.90;;;;;;;7.88;77.54;97302.85;104852;1271;98863;-67
2023/04/15 01:12:42;;;;;;;9.00;4.10;;;;;;;7.87;77.31;97307.66;104861;1260;96526;-67
2023/04/15 01:15:09;;;;;;;6.30;3.20;;;;;;;7.86;77.34;97297.98;104841;1260;96727;-66
2023/04/15 01:17:38;;;;;;;15.20;9.90;;;;;;;7.86;77.65;97290.73;104694;1263;97473;-66
2023/04/15 01:20:08;;;;;;;25.30;15.20;;;;;;;7.86;77.56;97288.52;104876;1258;110855;-67
2023/04/15 01:22:36;;;;;;;29.70;14.10;;;;;;;7.83;77.69;97285.32;104677;1263;98254;-68
2023/04/15 01:25:12;;;;;;;22.80;11.50;;;;;;;7.80;77.56;97282.30;105020;1260;97145;-69
2023/04/15 01:27:41;;;;;;;12.90;5.60;;;;;;;7.75;77.74;97289.05;104798;1264;96545;-67
2023/04/15 01:30:09;;;;;;;10.10;5.40;;;;;;;7.69;78.01;97292.86;104738;1266;96757;-68
2023/04/15 01:32:36;;;;;;;8.80;3.90;;;;;;;7.63;78.01;97296.20;104998;1261;109975;-69
2023/04/15 01:35:04;;;;;;;6.20;3.40;;;;;;;7.59;78.13;97298.09;105017;1260;100292;-68
2023/04/15 01:37:32;;;;;;;5.70;3.60;;;;;;;7.55;78.09;97299.09;104993;1260;107607;-69
2023/04/15 01:39:59;;;;;;;8.40;6.00;;;;;;;7.52;78.09;97302.70;104997;1261;96614;-67
2023/04/15 01:42:26;;;;;;;10.30;7.10;;;;;;;7.47;78.07;97303.45;104986;1260;96600;-67
2023/04/15 01:44:53;;;;;;;6.80;4.20;;;;;;;7.44;78.34;97303.38;104971;1258;96634;-67
2023/04/15 01:47:20;;;;;;;4.60;3.00;;;;;;;7.41;78.12;97303.89;104970;1269;96551;-67
2023/04/15 01:49:47;;;;;;;10.80;5.60;;;;;;;7.37;78.47;97310.23;104922;1263;96571;-67
2023/04/15 01:52:14;;;;;;;8.70;4.90;;;;;;;7.36;78.68;97312.80;105025;1260;96544;-67
2023/04/15 01:54:41;;;;;;;5.30;2.80;;;;;;;7.35;78.96;97309.63;104971;1260;97219;-67
2023/04/15 01:57:08;;;;;;;3.30;1.80;;;;;;;7.32;79.15;97313.80;104965;1260;96673;-68
2023/04/15 01:59:36;;;;;;;3.30;1.80;;;;;;;7.30;78.85;97314.95;104953;1271;97733;-67
2023/04/15 02:02:04;;;;;;;5.60;4.30;;;;;;;7.23;78.82;97312.89;105031;1260;96621;-68
2023/04/15 02:04:31;;;;;;;2.90;1.70;;;;;;;7.17;79.04;97310.45;104905;1269;97892;-67
2023/04/15 02:06:58;;;;;;;3.30;2.00;;;;;;;7.11;79.04;97315.42;104966;1258;97080;-67
2023/04/15 02:09:25;;;;;;;6.10;2.80;;;;;;;7.07;79.46;97317.13;104885;1260;96536;-68
2023/04/15 02:11:53;;;;;;;3.30;1.80;;;;;;;7.05;79.67;97318.50;104948;1258;96744;-65
2023/04/15 02:14:20;;;;;;;2.60;1.90;;;;;;;7.01;79.25;97322.48;104873;1260;96567;-68
2023/04/15 02:16:47;;;;;;;3.10;2.50;;;;;;;6.97;79.41;97325.58;104915;1260;96554;-67
2023/04/15 02:19:14;;;;;;;5.00;2.70;;;;;;;6.93;79.50;97329.45;104846;1263;96640;-66
2023/04/15 02:21:41;;;;;;;3.20;2.20;;;;;;;6.89;79.52;97336.36;104802;1260;96542;-66
2023/04/15 02:24:08;;;;;;;4.60;1.80;;;;;;;6.84;79.77;97339.44;104892;1260;96558;-67
2023/04/15 02:26:35;;;;;;;3.00;2.00;;;;;;;6.82;79.30;97339.85;104890;1258;97851;-66
2023/04/15 02:29:03;;;;;;;5.10;2.10;;;;;;;6.82;79.04;97342.98;104781;1260;96516;-66
2023/04/15 02:31:32;;;;;;;2.50;1.50;;;;;;;6.84;78.67;97347.17;104796;1260;96913;-67
2023/04/15 02:34:01;;;;;;;2.00;1.50;;;;;;;6.85;78.28;97346.98;104505;1257;98764;-66
2023/04/15 02:36:30;;;;;;;2.30;1.40;;;;;;;6.85;78.09;97351.67;104606;1260;107184;-66
2023/04/15 02:38:57;;;;;;;2.00;1.30;;;;;;;6.86;77.78;97351.27;104811;1260;96628;-66
2023/04/15 02:41:27;;;;;;;1.70;1.30;;;;;;;6.87;77.71;97357.27;104936;1257;97751;-68
2023/04/15 02:43:54;;;;;;;1.60;1.30;;;;;;;6.83;77.75;97358.81;104961;1260;110917;-67
2023/04/15 02:46:21;;;;;;;2.40;1.50;;;;;;;6.79;77.87;97360.84;104974;1260;96631;-71
2023/04/15 02:48:49;;;;;;;2.90;1.60;;;;;;;6.74;77.96;97362.30;105000;1260;97358;-66
2023/04/15 02:51:19;;;;;;;3.40;2.40;;;;;;;6.67;78.57;97361.61;104783;1266;96772;-67
2023/04/15 02:53:47;;;;;;;4.50;2.70;;;;;;;6.58;79.01;97367.30;104963;1269;96564;-68
2023/04/15 02:56:15;;;;;;;8.30;4.50;;;;;;;6.49;79.38;97373.79;104951;1259;110833;-67
2023/04/15 02:58:44;;;;;;;6.30;4.10;;;;;;;6.39;79.53;97372.11;104761;1274;97054;-66
2023/04/15 03:01:11;;;;;;;6.30;3.50;;;;;;;6.30;80.28;97372.10;104965;1261;108503;-69
2023/04/15 03:03:37;;;;;;;7.00;3.90;;;;;;;6.22;80.21;97375.44;105023;1271;96555;-66
2023/04/15 03:06:05;;;;;;;11.50;7.00;;;;;;;6.16;80.33;97375.94;104915;1261;96536;-66
2023/04/15 03:08:32;;;;;;;10.40;6.30;;;;;;;6.12;80.70;97374.23;104960;1264;96559;-67
2023/04/15 03:11:01;;;;;;;8.60;5.00;;;;;;;6.09;81.05;97372.05;104966;1279;96642;-66
2023/04/15 03:13:28;;;;;;;15.60;8.30;;;;;;;6.06;81.09;97372.94;104625;1267;108319;-67
2023/04/15 03:15:55;;;;;;;20.10;9.10;;;;;;;6.02;81.98;97373.50;104748;1260;97450;-66
2023/04/15 03:18:22;;;;;;;9.30;5.40;;;;;;;6.01;81.71;97374.52;104989;1269;96555;-67
2023/04/15 03:20:49;;;;;;;10.10;5.70;;;;;;;6.01;81.65;97380.19;104998;1264;96630;-70
2023/04/15 03:23:16;;;;;;;12.80;6.80;;;;;;;5.97;81.70;97378.70;104914;1261;97750;-67
2023/04/15 03:25:44;;;;;;;9.50;5.70;;;;;;;5.94;81.83;97381.47;105006;1270;96626;-67
2023/04/15 03:28:11;;;;;;;9.00;5.60;;;;;;;5.89;81.90;97388.10;104949;1261;97523;-68
2023/04/15 03:30:38;;;;;;;10.10;6.20;;;;;;;5.87;81.92;97389.57;105026;1262;97938;-67
2023/04/15 03:33:05;;;;;;;15.10;9.60;;;;;;;5.84;82.46;97394.33;104887;1269;97914;-67
2023/04/15 03:35:31;;;;;;;11.60;7.30;;;;;;;5.83;82.74;97390.25;105001;1258;96564;-67
2023/04/15 03:37:58;;;;;;;8.50;5.80;;;;;;;5.80;82.67;97391.40;104942;1260;96556;-68
2023/04/15 03:40:25;;;;;;;11.00;5.90;;;;;;;5.74;82.89;97394.98;104936;1269;96545;-67
2023/04/15 03:42:52;;;;;;;10.50;6.20;;;;;;;5.68;82.76;97400.80;104924;1260;96542;-67
2023/04/15 03:45:20;;;;;;;11.00;6.80;;;;;;;5.63;82.90;97407.41;104869;1269;97835;-67
2023/04/15 03:47:46;;;;;;;11.60;7.00;;;;;;;5.56;82.91;97407.09;104816;1260;96558;-67
2023/04/15 03:50:14;;;;;;;14.00;8.90;;;;;;;5.55;83.17;97411.69;104881;1258;96592;-68
2023/04/15 03:52:41;;;;;;;13.70;7.90;;;;;;;5.54;83.23;97409.64;104842;1266;96570;-66
2023/04/15 03:55:08;;;;;;;17.30;10.80;;;;;;;5.55;83.18;97407.11;104807;1258;96558;-66
2023/04/15 03:57:37;;;;;;;12.30;7.50;;;;;;;5.53;83.27;97406.24;104933;1274;97330;-69
2023/04/15 04:00:10;;;;;;;10.80;7.10;;;;;;;5.53;83.74;97401.83;104880;1261;97453;-66
2023/04/15 04:02:37;;;;;;;14.60;9.50;;;;;;;5.52;83.65;97405.56;104326;1274;97331;-66
2023/04/15 04:05:05;;;;;;;16.30;7.60;;;;;;;5.50;83.70;97407.23;104776;1262;97058;-67
2023/04/15 04:07:32;;;;;;;13.20;7.80;;;;;;;5.46;83.40;97403.95;104642;1270;96477;-73
2023/04/15 04:09:59;;;;;;;13.00;8.10;;;;;;;5.35;83.66;97403.77;104937;1263;97448;-67
2023/04/15 04:12:26;;;;;;;18.50;11.20;;;;;;;5.25;84.24;97406.55;104878;1262;97463;-67
2023/04/15 04:14:53;;;;;;;31.60;16.30;;;;;;;5.15;84.85;97408.14;104874;1262;96623;-67
2023/04/15 04:17:19;;;;;;;41.90;22.80;;;;;;;5.07;85.42;97411.51;104928;1263;96634;-71
2023/04/15 04:19:46;;;;;;;46.60;26.20;;;;;;;5.01;85.74;97411.15;104908;1262;96586;-67
2023/04/15 04:22:13;;;;;;;29.50;16.90;;;;;;;5.00;85.82;97412.58;104964;1262;96547;-66
2023/04/15 04:24:40;;;;;;;27.20;15.50;;;;;;;5.05;86.02;97416.22;104859;1262;96534;-66
2023/04/15 04:27:07;;;;;;;33.00;19.70;;;;;;;5.10;86.15;97416.09;104898;1269;96649;-66
2023/04/15 04:29:34;;;;;;;29.10;18.80;;;;;;;5.16;86.19;97414.16;104892;1262;96985;-67
2023/04/15 04:32:01;;;;;;;45.30;24.20;;;;;;;5.21;86.19;97416.52;104928;1279;96530;-66
2023/04/15 04:34:29;;;;;;;35.50;20.60;;;;;;;5.23;86.26;97422.14;104880;1271;97456;-67
2023/04/15 04:36:55;;;;;;;26.50;15.90;;;;;;;5.29;86.26;97423.73;104970;1270;96656;-67
2023/04/15 04:39:22;;;;;;;24.40;14.50;;;;;;;5.33;86.30;97427.38;104870;1262;97805;-66
2023/04/15 04:41:51;;;;;;;24.70;14.40;;;;;;;5.34;86.03;97431.77;105014;1280;96669;-69
2023/04/15 04:44:18;;;;;;;22.30;13.50;;;;;;;5.37;86.19;97437.43;104863;1274;107319;-67
2023/04/15 04:46:45;;;;;;;56.10;28.10;;;;;;;5.41;86.21;97439.79;104845;1263;97471;-68
2023/04/15 04:49:11;;;;;;;17.20;9.50;;;;;;;5.46;86.62;97442.07;105013;1262;98020;-74
2023/04/15 04:51:38;;;;;;;15.40;9.30;;;;;;;5.54;86.54;97440.77;104809;1267;96541;-68
2023/04/15 04:54:05;;;;;;;26.30;16.10;;;;;;;5.63;86.46;97437.78;104657;1263;97345;-67
2023/04/15 04:56:33;;;;;;;27.50;15.90;;;;;;;5.63;86.04;97436.25;104958;1263;96683;-67
2023/04/15 04:59:00;;;;;;;36.50;20.90;;;;;;;5.59;86.57;97436.04;104929;1263;96523;-67
2023/04/15 05:01:28;;;;;;;36.80;22.80;;;;;;;5.55;87.08;97443.52;104895;1264;97834;-68
2023/04/15 05:03:55;;;;;;;37.20;22.60;;;;;;;5.56;87.36;97447.36;104837;1270;96641;-68
2023/04/15 05:06:22;;;;;;;35.50;20.90;;;;;;;5.65;87.55;97447.13;104558;1263;97232;-67
2023/04/15 05:08:49;;;;;;;23.80;14.40;;;;;;;5.75;87.53;97444.18;104826;1273;96583;-68
2023/04/15 05:11:16;;;;;;;21.20;12.30;;;;;;;5.76;87.17;97443.80;104943;1271;98321;-67
2023/04/15 05:13:43;;;;;;;19.70;11.30;;;;;;;5.78;86.93;97442.24;104855;1263;96565;-67
2023/04/15 05:16:11;;;;;;;35.10;23.60;;;;;;;5.83;86.99;97441.24;104732;1263;96602;-69
2023/04/15 05:18:39;;;;;;;32.30;22.80;;;;;;;5.92;86.83;97438.46;104730;1262;96548;-69
2023/04/15 05:21:06;;;;;;;34.80;20.40;;;;;;;5.98;86.64;97442.98;104622;1263;97689;-66
2023/04/15 05:23:34;;;;;;;23.60;14.40;;;;;;;6.09;86.91;97447.05;104687;1263;96525;-66
2023/04/15 05:26:01;;;;;;;24.10;14.10;;;;;;;6.11;86.37;97449.17;104787;1270;96561;-68
2023/04/15 05:28:28;;;;;;;24.50;15.30;;;;;;;6.09;86.68;97454.26;104673;1266;96564;-67
2023/04/15 05:30:56;;;;;;;23.40;14.20;;;;;;;6.13;87.07;97457.02;104916;1263;96557;-67
2023/04/15 05:33:23;;;;;;;26.50;15.40;;;;;;;6.17;87.13;97463.65;104977;1268;97867;-68
2023/04/15 05:35:50;;;;;;;24.00;13.30;;;;;;;6.21;87.45;97459.89;104898;1270;96560;-67
2023/04/15 05:38:17;;;;;;;20.60;12.80;;;;;;;6.27;87.98;97459.14;104910;1270;96995;-66
2023/04/15 05:40:45;;;;;;;26.20;15.20;;;;;;;6.44;88.07;97463.17;104959;1263;96526;-67
2023/04/15 05:43:12;;;;;;;21.40;12.40;;;;;;;6.64;87.78;97462.78;104890;1263;96661;-66
2023/04/15 05:45:39;;;;;;;15.70;9.50;;;;;;;6.85;87.83;97463.96;104790;1263;96515;-66
2023/04/15 05:48:06;;;;;;;16.40;9.20;;;;;;;7.05;86.40;97464.45;104872;1264;97737;-66
2023/04/15 05:50:33;;;;;;;15.80;11.10;;;;;;;7.23;86.41;97463.98;104985;1262;97165;-66
2023/04/15 05:53:00;;;;;;;16.00;10.10;;;;;;;7.48;86.73;97461.87;104806;1258;97856;-67
2023/04/15 05:55:28;;;;;;;12.00;7.30;;;;;;;7.72;86.21;97459.15;104852;1270;97852;-67
2023/04/15 05:57:55;;;;;;;11.90;6.90;;;;;;;7.90;85.50;97462.17;104899;1264;96579;-67
2023/04/15 06:00:22;;;;;;;12.40;7.10;;;;;;;8.05;84.54;97464.95;104867;1270;96978;-67
2023/04/15 06:02:49;;;;;;;11.50;7.70;;;;;;;8.17;84.25;97471.45;104679;1262;96488;-69
2023/04/15 06:05:16;;;;;;;10.50;7.00;;;;;;;8.29;84.10;97475.93;104920;1262;96566;-68
2023/04/15 06:07:44;;;;;;;12.40;7.50;;;;;;;8.44;83.89;97482.89;104756;1263;97260;-67
2023/04/15 06:10:14;;;;;;;10.70;7.60;;;;;;;8.60;83.18;97483.08;104622;1272;97973;-67
2023/04/15 06:12:41;;;;;;;12.30;6.90;;;;;;;8.74;82.04;97485.89;104709;1263;96521;-67
2023/04/15 06:15:11;;;;;;;12.00;6.80;;;;;;;8.90;82.15;97486.95;104564;1260;97458;-67
2023/04/15 06:17:38;;;;;;;12.50;6.40;;;;;;;9.10;81.86;97489.50;104646;1274;107130;-67
2023/04/15 06:20:07;;;;;;;11.60;8.00;;;;;;;9.29;80.88;97490.52;104950;1262;97819;-67
2023/04/15 06:22:36;;;;;;;10.80;6.80;;;;;;;9.46;80.37;97495.42;104764;1263;96622;-67
2023/04/15 06:25:06;;;;;;;10.00;5.90;;;;;;;9.68;81.38;97490.15;104924;1262;110876;-67
2023/04/15 06:27:33;;;;;;;9.20;5.80;;;;;;;9.90;80.83;97491.70;104821;1263;98653;-67
2023/04/15 06:30:00;;;;;;;7.40;4.80;;;;;;;10.12;78.19;97488.83;104778;1270;96610;-68
2023/04/15 06:32:27;;;;;;;7.80;5.00;;;;;;;10.15;77.32;97491.76;104844;1270;97883;-67
2023/04/15 06:34:55;;;;;;;7.80;4.70;;;;;;;10.29;77.55;97493.30;104849;1271;96538;-69
2023/04/15 06:37:24;;;;;;;14.70;5.30;;;;;;;10.41;76.63;97494.64;104677;1267;97074;-71
2023/04/15 06:39:52;;;;;;;9.30;5.20;;;;;;;10.56;76.72;97492.72;104777;1262;99798;-72
2023/04/15 06:42:21;;;;;;;7.80;4.60;;;;;;;10.76;76.64;97497.15;104840;1271;108496;-71
2023/04/15 06:44:50;;;;;;;7.60;4.60;;;;;;;10.89;75.55;97496.23;104844;1264;96538;-67
2023/04/15 06:47:17;;;;;;;4.50;2.00;;;;;;;11.05;73.70;97499.91;104813;1264;96626;-68
2023/04/15 06:49:44;;;;;;;3.50;2.20;;;;;;;11.18;71.76;97502.73;104625;1263;97584;-70
2023/04/15 06:52:11;;;;;;;1.80;1.10;;;;;;;11.25;68.80;97502.00;104773;1271;96544;-69
2023/04/15 06:54:39;;;;;;;2.00;1.30;;;;;;;11.30;68.38;97500.09;104803;1271;96569;-67
2023/04/15 06:57:08;;;;;;;3.40;1.80;;;;;;;11.38;67.56;97497.11;104662;1271;96457;-69
2023/04/15 06:59:39;;;;;;;3.30;1.40;;;;;;;11.44;66.91;97491.63;104184;1260;945831;-68
2023/04/15 07:02:11;;;;;;;2.10;1.60;;;;;;;11.45;65.22;97493.48;104845;1271;109888;-68
2023/04/15 07:04:38;;;;;;;2.80;1.60;;;;;;;11.57;67.61;97491.52;104816;1263;98872;-69
2023/04/15 07:07:06;;;;;;;2.90;1.80;;;;;;;11.78;67.65;97493.98;104565;1275;107363;-69
2023/04/15 07:09:34;;;;;;;3.50;1.50;;;;;;;11.98;66.57;97501.34;104623;1273;96689;-68
2023/04/15 07:12:01;;;;;;;2.00;0.80;;;;;;;12.17;64.16;97503.24;104826;1262;96658;-67
2023/04/15 07:14:28;;;;;;;4.30;1.50;;;;;;;12.28;63.40;97506.42;104643;1272;96661;-67
2023/04/15 07:16:56;;;;;;;4.10;1.70;;;;;;;12.36;62.68;97508.98;104556;1271;96676;-68
2023/04/15 07:19:23;;;;;;;19.00;11.30;;;;;;;12.33;59.07;97514.17;104383;1268;109541;-68
2023/04/15 07:21:50;;;;;;;6.10;1.90;;;;;;;12.27;62.18;97516.52;104778;1261;96595;-68
2023/04/15 07:24:18;;;;;;;4.30;1.80;;;;;;;12.44;61.59;97520.02;104846;1269;96644;-68
2023/04/15 07:26:46;;;;;;;1.80;0.90;;;;;;;12.67;59.71;97520.10;104683;1275;110451;-68
2023/04/15 07:29:13;;;;;;;2.60;0.90;;;;;;;12.58;56.63;97514.84;104913;1269;96555;-68
2023/04/15 07:31:41;;;;;;;0.90;0.70;;;;;;;12.45;55.98;97517.98;104962;1260;96531;-68
2023/04/15 07:34:08;;;;;;;2.40;1.00;;;;;;;12.42;56.99;97515.65;104984;1269;96643;-67
2023/04/15 07:36:35;;;;;;;1.20;0.60;;;;;;;12.51;56.05;97516.27;104957;1263;97339;-67
2023/04/15 07:39:03;;;;;;;0.70;0.60;;;;;;;12.61;55.12;97516.80;105296;1260;96530;-67
2023/04/15 07:41:30;;;;;;;0.60;0.60;;;;;;;12.70;55.43;97517.27;105006;1269;99160;-68
2023/04/15 07:43:58;;;;;;;0.50;0.50;;;;;;;12.85;56.15;97515.58;104978;1269;96463;-68
2023/04/15 07:46:26;;;;;;;0.60;0.60;;;;;;;13.13;57.29;97518.40;105002;1260;96651;-68
2023/04/15 07:48:53;;;;;;;1.30;0.70;;;;;;;13.37;54.33;97513.39;105021;1258;96650;-68
2023/04/15 07:51:20;;;;;;;0.40;0.40;;;;;;;13.57;55.19;97513.84;104954;1258;96558;-68
2023/04/15 07:53:49;;;;;;;0.40;0.40;;;;;;;13.66;50.86;97518.34;105004;1260;97842;-68
2023/04/15 07:56:16;;;;;;;1.10;0.50;;;;;;;13.64;53.25;97517.59;104766;1264;106640;-68
2023/04/15 07:58:43;;;;;;;1.10;0.60;;;;;;;13.87;52.24;97512.91;104955;1269;96559;-67
2023/04/15 08:01:11;;;;;;;1.00;0.60;;;;;;;13.88;50.80;97519.07;104788;1269;97960;-67
2023/04/15 08:03:38;;;;;;;0.50;0.50;;;;;;;14.06;51.92;97517.27;104827;1263;96618;-68
2023/04/15 08:06:06;;;;;;;0.50;0.50;;;;;;;14.28;50.35;97522.38;104935;1260;96904;-68
2023/04/15 08:08:32;;;;;;;2.70;0.90;;;;;;;14.37;50.30;97518.38;104789;1271;96605;-71
2023/04/15 08:11:00;;;;;;;0.90;0.60;;;;;;;14.54;50.99;97516.45;104773;1267;97100;-68
2023/04/15 08:13:27;;;;;;;1.70;1.20;;;;;;;14.61;49.33;97527.91;104973;1260;96567;-67
2023/04/15 08:16:17;;;;;;;1.10;0.70;;;;;;;14.72;50.32;97524.86;105085;1260;98415;-67
2023/04/15 08:18:48;;;;;;;2.50;0.80;;;;;;;15.00;50.26;97525.14;105116;1257;99121;-67
2023/04/15 08:21:17;;;;;;;1.40;0.90;;;;;;;15.28;50.56;97524.67;105144;1257;108570;-66
2023/04/15 08:23:46;;;;;;;2.30;1.30;;;;;;;15.37;48.18;97526.70;105193;1268;96558;-67
2023/04/15 08:26:13;;;;;;;1.80;1.20;;;;;;;15.52;50.71;97527.90;105160;1261;96461;-66
2023/04/15 08:28:41;;;;;;;2.10;1.00;;;;;;;15.91;49.63;97525.84;105187;1268;97448;-66
2023/04/15 08:31:09;;;;;;;1.30;1.10;;;;;;;16.28;49.16;97526.02;104836;1264;98296;-66
2023/04/15 08:33:36;;;;;;;1.90;1.20;;;;;;;16.61;49.64;97527.46;105058;1263;108164;-66
2023/04/15 08:36:04;;;;;;;1.60;1.30;;;;;;;16.93;46.58;97525.59;105129;1254;96560;-66
2023/04/15 08:38:32;;;;;;;1.70;1.40;;;;;;;16.74;45.10;97521.71;104771;1254;98307;-66
2023/04/15 08:41:06;;;;;;;1.30;0.90;;;;;;;16.52;46.43;97521.23;104978;1268;110819;-66
2023/04/15 08:43:35;;;;;;;1.50;1.10;;;;;;;16.87;46.27;97524.59;105071;1268;99202;-65
2023/04/15 08:46:04;;;;;;;1.70;1.40;;;;;;;17.24;45.15;97523.76;105040;1254;108949;-65
2023/04/15 08:48:37;;;;;;;2.30;1.50;;;;;;;17.42;45.35;97521.23;104758;1261;96624;-65
2023/04/15 08:51:06;;;;;;;1.40;0.90;;;;;;;17.69;45.49;97521.35;104820;1254;97483;-66
2023/04/15 08:53:34;;;;;;;2.60;1.30;;;;;;;18.01;45.63;97517.81;105046;1258;110869;-66
2023/04/15 08:56:04;;;;;;;1.60;1.20;;;;;;;18.40;46.01;97517.83;105007;1268;98944;-66
2023/04/15 08:58:32;;;;;;;1.40;1.20;;;;;;;18.59;43.23;97521.55;104661;1271;107627;-66
2023/04/15 09:01:00;;;;;;;2.00;1.30;;;;;;;18.48;42.41;97525.52;104960;1268;96555;-67
2023/04/15 09:03:27;;;;;;;2.00;1.40;;;;;;;18.50;42.92;97523.45;105191;1257;97230;-66
2023/04/15 09:05:56;;;;;;;2.50;1.30;;;;;;;18.51;41.24;97525.28;105236;1260;110812;-65
2023/04/15 09:08:23;;;;;;;2.10;1.30;;;;;;;18.49;42.38;97524.65;105210;1258;99188;-65
2023/04/15 09:10:51;;;;;;;2.40;1.20;;;;;;;18.71;42.12;97519.41;104992;1270;109600;-65
2023/04/15 09:13:17;;;;;;;1.40;0.90;;;;;;;19.07;41.90;97525.52;105181;1254;97761;-65
2023/04/15 09:15:45;;;;;;;1.60;1.00;;;;;;;19.10;39.55;97525.91;105098;1258;97843;-66
2023/04/15 09:18:25;;;;;;;1.50;1.20;;;;;;;19.01;40.60;97529.00;105154;1268;96542;-66
2023/04/15 09:20:52;;;;;;;1.30;1.20;;;;;;;19.32;41.27;97527.45;105174;1254;99205;-68
2023/04/15 09:23:19;;;;;;;2.00;0.90;;;;;;;19.59;40.73;97525.70;105131;1255;96536;-65
2023/04/15 09:25:48;;;;;;;1.60;1.20;;;;;;;19.87;39.92;97523.61;105040;1261;98041;-68
2023/04/15 09:28:24;;;;;;;1.90;1.20;;;;;;;19.99;38.37;97524.74;105056;1257;96519;-66
2023/04/15 09:30:56;;;;;;;1.90;1.40;;;;;;;19.71;37.64;97525.81;104930;1267;110172;-66
2023/04/15 09:33:25;;;;;;;1.80;1.30;;;;;;;19.55;39.13;97525.55;105084;1258;98998;-69
2023/04/15 09:36:04;;;;;;;2.10;1.50;;;;;;;19.67;38.92;97519.72;105154;1257;108418;-66
2023/04/15 09:38:32;;;;;;;2.50;1.90;;;;;;;20.11;40.21;97514.11;105097;1257;96541;-66
2023/04/15 09:40:59;;;;;;;2.40;2.00;;;;;;;20.65;38.07;97517.64;105232;1268;96566;-66
2023/04/15 09:43:40;;;;;;;2.10;1.70;;;;;;;20.83;36.91;97516.85;105093;1254;97435;-66
2023/04/15 09:46:07;;;;;;;;;;;;;;;21.17;38.55;97518.00;104902;1261;98846;-66
2023/04/15 09:48:35;;;;;;;2.00;1.50;;;;;;;21.58;37.26;97522.73;105011;1263;96677;-66
2023/04/15 09:51:03;;;;;;;1.80;1.50;;;;;;;21.41;35.85;97526.66;105168;1257;97173;-66
2023/04/15 09:53:33;;;;;;;1.70;1.10;;;;;;;21.49;36.37;97528.41;105216;1257;96535;-66
2023/04/15 09:56:01;;;;;;;1.70;1.30;;;;;;;21.68;33.99;97527.01;104981;1261;110547;-66
2023/04/15 09:58:30;;;;;;;3.40;1.60;;;;;;;21.71;36.50;97530.23;105138;1257;98537;-66
2023/04/15 10:00:59;;;;;;;1.90;1.60;;;;;;;21.99;35.62;97526.07;105070;1254;108875;-64
2023/04/15 10:03:33;;;;;;;1.70;1.40;;;;;;;22.10;34.45;97529.02;104784;1254;97855;-65
2023/04/15 10:06:04;;;;;;;1.70;1.50;;;;;;;22.27;35.40;97524.65;104989;1268;96638;-64
2023/04/15 10:08:33;;;;;;;2.30;1.60;;;;;;;22.76;34.57;97523.04;104928;1258;111406;-63
2023/04/15 10:11:01;;;;;;;1.90;1.60;;;;;;;22.87;35.09;97524.23;105065;1268;99262;-63
2023/04/15 10:13:33;;;;;;;3.00;1.50;;;;;;;22.59;34.73;97526.11;104845;1273;108110;-64
2023/04/15 10:16:14;;;;;;;2.20;1.90;;;;;;;22.22;34.38;97525.92;105144;1258;96525;-64
2023/04/15 10:18:47;;;;;;;2.00;1.70;;;;;;;21.78;34.72;97521.63;104970;1260;98136;-65
2023/04/15 10:21:17;;;;;;;2.30;2.10;;;;;;;21.53;35.26;97526.29;105101;1259;111302;-64
2023/04/15 10:23:46;;;;;;;2.70;1.90;;;;;;;21.34;35.12;97532.85;105075;1269;99112;-64
2023/04/15 10:26:16;;;;;;;4.60;3.50;;;;;;;20.76;34.12;97526.70;105001;1257;108064;-64
2023/04/15 10:28:45;;;;;;;3.50;1.70;;;;;;;20.27;34.78;97526.75;104936;1261;97165;-63
2023/04/15 10:31:14;;;;;;;4.30;2.40;;;;;;;19.95;35.56;97526.59;104939;1260;96534;-64
2023/04/15 10:33:44;;;;;;;2.70;1.40;;;;;;;19.78;37.30;97527.30;105015;1270;111311;-64
2023/04/15 10:36:12;;;;;;;3.80;2.50;;;;;;;19.60;36.68;97525.23;104962;1259;99172;-63
2023/04/15 10:38:45;;;;;;;2.70;1.80;;;;;;;19.42;37.40;97523.23;105199;1258;107605;-64
2023/04/15 10:41:13;;;;;;;1.80;1.50;;;;;;;19.56;37.34;97524.44;104910;1261;96544;-64
2023/04/15 10:43:50;;;;;;;2.20;1.60;;;;;;;19.58;36.76;97522.05;104877;1264;96760;-63
2023/04/15 10:46:43;;;;;;;2.90;2.00;;;;;;;19.53;37.18;97522.95;104983;1260;110549;-64
2023/04/15 10:49:15;;;;;;;2.20;1.80;;;;;;;19.23;37.47;97521.36;104584;1262;97875;-64
2023/04/15 10:51:51;;;;;;;4.70;2.40;;;;;;;19.06;37.38;97522.89;104841;1259;108796;-67
2023/04/15 10:54:25;;;;;;;1.80;1.50;;;;;;;18.82;37.08;97524.41;106325;1256;96674;-67
2023/04/15 10:57:07;;;;;;;4.20;2.90;;;;;;;18.66;37.48;97525.20;104944;1270;96613;-63
2023/04/15 11:00:03;;;;;;;1.70;1.60;;;;;;;18.64;37.80;97524.18;104871;1260;110946;-64
2023/04/15 11:02:47;;;;;;;3.60;2.00;;;;;;;18.44;37.52;97527.02;104962;1270;99215;-64
2023/04/15 11:05:16;;;;;;;2.00;1.70;;;;;;;18.23;39.08;97529.14;105000;1256;108587;-62
2023/04/15 11:07:45;;;;;;;3.30;2.10;;;;;;;18.25;40.06;97524.86;105039;1259;96542;-65
2023/04/15 11:10:12;;;;;;;1.80;1.50;;;;;;;18.22;38.79;97530.23;105059;1271;96542;-64
2023/04/15 11:12:40;;;;;;;2.20;2.00;;;;;;;17.88;38.44;97534.33;104966;1257;96565;-64
2023/04/15 11:15:33;;;;;;;2.20;1.80;;;;;;;17.72;38.86;97535.77;104939;1261;99144;-64
2023/04/15 11:18:23;;;;;;;2.00;1.40;;;;;;;17.58;39.02;97533.02;104975;1261;108297;-62
2023/04/15 11:20:59;;;;;;;2.20;1.70;;;;;;;17.48;39.55;97536.14;104840;1271;96547;-64
2023/04/15 11:23:27;;;;;;;2.90;2.00;;;;;;;17.44;40.30;97537.14;104716;1257;97849;-65
2023/04/15 11:25:56;;;;;;;3.10;2.40;;;;;;;17.59;39.80;97537.30;104767;1261;110486;-65
2023/04/15 11:28:28;;;;;;;2.10;1.70;;;;;;;17.41;39.16;97537.52;104943;1260;97605;-65
2023/04/15 11:30:56;;;;;;;2.40;1.70;;;;;;;17.63;39.94;97543.48;104872;1256;108527;-66